OCN1GN LEIB-EDDF
Flight info
| Callsign | OCN1GN |
|---|---|
| Flight time | 1h 50m |
| Altitude | 36000 |
| Route | KABRE DCT ELTAN N853 LUMAS DCT UNANA DCT STP DCT RAPED DCT PIGOS DCT EKSID DCT NOSTA DCT NOPMU DCT ABESI DCT LADOL T163 EMPAX EMPAX5C |
| Aircraft | A320/M-SDE2E3FGIJ1LORWXYZ/HB1 |
Departure
| Time | 2026-04-15 12:11 |
|---|---|
| Airport | Ibiza Airport (LEIB) |
Arrival
| Time | 2026-04-15 14:02 |
|---|---|
| Airport | Frankfurt Main Airport (EDDF) |
| Time | Latitude | Longitude | Altitude | Speed | Heading |
|---|---|---|---|---|---|
| 2026-04-15 11:29 | 38.87532 | 1.36865 | 9 ft | 0 kts | 332° |
| 2026-04-15 12:00 | 38.87530 | 1.36867 | 8 ft | 1 kts | 332° |
| 2026-04-15 12:01 | 38.87514 | 1.36876 | 8 ft | 3 kts | 341° |
| 2026-04-15 12:01 | 38.87495 | 1.36883 | 9 ft | 3 kts | 358° |
| 2026-04-15 12:01 | 38.87477 | 1.36880 | 9 ft | 3 kts | 30° |
| 2026-04-15 12:01 | 38.87465 | 1.36868 | 9 ft | 1 kts | 61° |
| 2026-04-15 12:02 | 38.87463 | 1.36863 | 8 ft | 0 kts | 62° |
| 2026-04-15 12:04 | 38.87468 | 1.36875 | 10 ft | 4 kts | 62° |
| 2026-04-15 12:04 | 38.87486 | 1.36917 | 10 ft | 8 kts | 62° |
| 2026-04-15 12:05 | 38.87513 | 1.36984 | 8 ft | 8 kts | 62° |
| 2026-04-15 12:05 | 38.87530 | 1.37023 | 8 ft | 7 kts | 62° |
| 2026-04-15 12:05 | 38.87561 | 1.37099 | 8 ft | 11 kts | 62° |
| 2026-04-15 12:05 | 38.87594 | 1.37178 | 9 ft | 9 kts | 62° |
| 2026-04-15 12:06 | 38.87626 | 1.37257 | 8 ft | 12 kts | 62° |
| 2026-04-15 12:06 | 38.87668 | 1.37356 | 8 ft | 14 kts | 62° |
| 2026-04-15 12:06 | 38.87696 | 1.37461 | 8 ft | 12 kts | 102° |
| 2026-04-15 12:06 | 38.87639 | 1.37518 | 8 ft | 10 kts | 152° |
| 2026-04-15 12:07 | 38.87588 | 1.37558 | 9 ft | 7 kts | 130° |
| 2026-04-15 12:07 | 38.87596 | 1.37617 | 9 ft | 9 kts | 62° |
| 2026-04-15 12:07 | 38.87632 | 1.37702 | 9 ft | 12 kts | 62° |
| 2026-04-15 12:07 | 38.87678 | 1.37812 | 9 ft | 16 kts | 61° |
| 2026-04-15 12:08 | 38.87727 | 1.37929 | 9 ft | 14 kts | 62° |
| 2026-04-15 12:08 | 38.87771 | 1.38036 | 9 ft | 13 kts | 62° |
| 2026-04-15 12:08 | 38.87811 | 1.38130 | 9 ft | 11 kts | 62° |
| 2026-04-15 12:08 | 38.87855 | 1.38238 | 9 ft | 17 kts | 62° |
| 2026-04-15 12:09 | 38.87919 | 1.38393 | 9 ft | 20 kts | 62° |
| 2026-04-15 12:09 | 38.87982 | 1.38543 | 10 ft | 17 kts | 62° |
| 2026-04-15 12:09 | 38.88025 | 1.38656 | 9 ft | 12 kts | 78° |
| 2026-04-15 12:09 | 38.87981 | 1.38717 | 10 ft | 9 kts | 161° |
| 2026-04-15 12:10 | 38.87935 | 1.38715 | 11 ft | 4 kts | 196° |
| 2026-04-15 12:10 | 38.87910 | 1.38705 | 12 ft | 6 kts | 197° |
| 2026-04-15 12:10 | 38.87857 | 1.38680 | 13 ft | 9 kts | 214° |
| 2026-04-15 12:10 | 38.87801 | 1.38559 | 12 ft | 37 kts | 242° |
| 2026-04-15 12:11 | 38.87568 | 1.37997 | 12 ft | 103 kts | 242° |
| 2026-04-15 12:11 | 38.87145 | 1.36977 | 15 ft | 154 kts | 241° |
| 2026-04-15 12:11 | 38.86643 | 1.35727 | 568 ft | 157 kts | 239° |
| 2026-04-15 12:11 | 38.85968 | 1.34575 | 1104 ft | 171 kts | 228° |
| 2026-04-15 12:12 | 38.85114 | 1.33377 | 1430 ft | 193 kts | 227° |
| 2026-04-15 12:12 | 38.84162 | 1.32075 | 1879 ft | 205 kts | 227° |
| 2026-04-15 12:12 | 38.83180 | 1.30724 | 2613 ft | 209 kts | 228° |
| 2026-04-15 12:12 | 38.82186 | 1.29345 | 3368 ft | 212 kts | 230° |
| 2026-04-15 12:13 | 38.81115 | 1.28003 | 4075 ft | 220 kts | 215° |
| 2026-04-15 12:13 | 38.79653 | 1.27311 | 4682 ft | 236 kts | 187° |
| 2026-04-15 12:13 | 38.77934 | 1.27532 | 5046 ft | 262 kts | 170° |
| 2026-04-15 12:13 | 38.76077 | 1.27981 | 5562 ft | 278 kts | 170° |
| 2026-04-15 12:14 | 38.74156 | 1.28447 | 6320 ft | 284 kts | 169° |
| 2026-04-15 12:14 | 38.72199 | 1.28914 | 7095 ft | 289 kts | 170° |
| 2026-04-15 12:14 | 38.70207 | 1.29381 | 7840 ft | 294 kts | 169° |
| 2026-04-15 12:14 | 38.68180 | 1.29852 | 8574 ft | 299 kts | 169° |
| 2026-04-15 12:15 | 38.66114 | 1.30329 | 9334 ft | 304 kts | 169° |
| 2026-04-15 12:15 | 38.64015 | 1.30812 | 10085 ft | 309 kts | 169° |
| 2026-04-15 12:15 | 38.61922 | 1.31498 | 10723 ft | 313 kts | 155° |
| 2026-04-15 12:15 | 38.60073 | 1.32944 | 11412 ft | 313 kts | 136° |
| 2026-04-15 12:16 | 38.58652 | 1.35067 | 11876 ft | 322 kts | 117° |
| 2026-04-15 12:16 | 38.57816 | 1.37780 | 12048 ft | 337 kts | 97° |
| 2026-04-15 12:16 | 38.57550 | 1.40834 | 12177 ft | 354 kts | 84° |
| 2026-04-15 12:16 | 38.58024 | 1.43917 | 12305 ft | 366 kts | 65° |
| 2026-04-15 12:17 | 38.59392 | 1.46692 | 12440 ft | 377 kts | 44° |
| 2026-04-15 12:17 | 38.61472 | 1.48887 | 12648 ft | 388 kts | 35° |
| 2026-04-15 12:17 | 38.63617 | 1.50943 | 13113 ft | 393 kts | 34° |
| 2026-04-15 12:17 | 38.65817 | 1.53039 | 13666 ft | 396 kts | 35° |
| 2026-04-15 12:18 | 38.68036 | 1.55154 | 14178 ft | 400 kts | 35° |
| 2026-04-15 12:18 | 38.70271 | 1.57293 | 14700 ft | 402 kts | 35° |
| 2026-04-15 12:18 | 38.72508 | 1.59444 | 15190 ft | 403 kts | 35° |
| 2026-04-15 12:18 | 38.74755 | 1.61615 | 15677 ft | 405 kts | 35° |
| 2026-04-15 12:19 | 38.77008 | 1.63796 | 16165 ft | 407 kts | 35° |
| 2026-04-15 12:19 | 38.79271 | 1.65989 | 16645 ft | 409 kts | 34° |
| 2026-04-15 12:19 | 38.81545 | 1.68192 | 17118 ft | 411 kts | 34° |
| 2026-04-15 12:19 | 38.83829 | 1.70402 | 17580 ft | 412 kts | 34° |
| 2026-04-15 12:20 | 38.86126 | 1.72625 | 18035 ft | 414 kts | 34° |
| 2026-04-15 12:20 | 38.88431 | 1.74854 | 18477 ft | 416 kts | 34° |
| 2026-04-15 12:20 | 38.90751 | 1.77100 | 18833 ft | 419 kts | 34° |
| 2026-04-15 12:20 | 38.93081 | 1.79357 | 19179 ft | 421 kts | 34° |
| 2026-04-15 12:21 | 38.95425 | 1.81632 | 19525 ft | 423 kts | 34° |
| 2026-04-15 12:21 | 38.97777 | 1.83922 | 19866 ft | 425 kts | 34° |
| 2026-04-15 12:21 | 39.00139 | 1.86227 | 20202 ft | 427 kts | 34° |
| 2026-04-15 12:21 | 39.02511 | 1.88542 | 20529 ft | 429 kts | 34° |
| 2026-04-15 12:22 | 39.04893 | 1.90869 | 20859 ft | 431 kts | 34° |
| 2026-04-15 12:22 | 39.07286 | 1.93209 | 21233 ft | 432 kts | 34° |
| 2026-04-15 12:22 | 39.09679 | 1.95553 | 21568 ft | 433 kts | 34° |
| 2026-04-15 12:22 | 39.12042 | 1.97868 | 21892 ft | 437 kts | 36° |
| 2026-04-15 12:23 | 39.14485 | 2.00260 | 22036 ft | 444 kts | 37° |
| 2026-04-15 12:23 | 39.16965 | 2.02689 | 22161 ft | 452 kts | 37° |
| 2026-04-15 12:23 | 39.19483 | 2.05157 | 22289 ft | 458 kts | 37° |
| 2026-04-15 12:23 | 39.22041 | 2.07667 | 22420 ft | 464 kts | 37° |
| 2026-04-15 12:24 | 39.24621 | 2.10204 | 22591 ft | 468 kts | 37° |
| 2026-04-15 12:24 | 39.27217 | 2.12758 | 22857 ft | 470 kts | 37° |
| 2026-04-15 12:24 | 39.29822 | 2.15322 | 23116 ft | 472 kts | 37° |
| 2026-04-15 12:24 | 39.32439 | 2.17896 | 23372 ft | 474 kts | 37° |
| 2026-04-15 12:25 | 39.35058 | 2.20472 | 23683 ft | 474 kts | 37° |
| 2026-04-15 12:25 | 39.37677 | 2.23052 | 24052 ft | 473 kts | 37° |
| 2026-04-15 12:25 | 39.40288 | 2.25630 | 24417 ft | 472 kts | 37° |
| 2026-04-15 12:25 | 39.42894 | 2.28207 | 24783 ft | 471 kts | 37° |
| 2026-04-15 12:26 | 39.45494 | 2.30784 | 25139 ft | 470 kts | 37° |
| 2026-04-15 12:26 | 39.48086 | 2.33356 | 25496 ft | 470 kts | 37° |
| 2026-04-15 12:26 | 39.50677 | 2.35932 | 25845 ft | 469 kts | 37° |
| 2026-04-15 12:26 | 39.53264 | 2.38505 | 26202 ft | 468 kts | 37° |
| 2026-04-15 12:27 | 39.55841 | 2.41070 | 26553 ft | 468 kts | 37° |
| 2026-04-15 12:27 | 39.58425 | 2.43641 | 26909 ft | 467 kts | 37° |
| 2026-04-15 12:27 | 39.61004 | 2.46208 | 27242 ft | 468 kts | 37° |
| 2026-04-15 12:27 | 39.63581 | 2.48780 | 27544 ft | 468 kts | 37° |
| 2026-04-15 12:28 | 39.66168 | 2.51360 | 27844 ft | 469 kts | 37° |
| 2026-04-15 12:28 | 39.68756 | 2.53940 | 28168 ft | 469 kts | 37° |
| 2026-04-15 12:28 | 39.71332 | 2.56511 | 28604 ft | 465 kts | 37° |
| 2026-04-15 12:28 | 39.73888 | 2.59069 | 29002 ft | 463 kts | 37° |
| 2026-04-15 12:29 | 39.76436 | 2.61625 | 29352 ft | 462 kts | 37° |
| 2026-04-15 12:29 | 39.78979 | 2.64178 | 29691 ft | 462 kts | 37° |
| 2026-04-15 12:29 | 39.81520 | 2.66728 | 30033 ft | 461 kts | 37° |
| 2026-04-15 12:29 | 39.84056 | 2.69271 | 30343 ft | 460 kts | 37° |
| 2026-04-15 12:30 | 39.86590 | 2.71813 | 30663 ft | 460 kts | 37° |
| 2026-04-15 12:30 | 39.89117 | 2.74357 | 30977 ft | 459 kts | 37° |
| 2026-04-15 12:30 | 39.91637 | 2.76901 | 31278 ft | 458 kts | 37° |
| 2026-04-15 12:30 | 39.94156 | 2.79444 | 31594 ft | 458 kts | 37° |
| 2026-04-15 12:31 | 39.96672 | 2.81982 | 31898 ft | 457 kts | 37° |
| 2026-04-15 12:31 | 39.99185 | 2.84516 | 32197 ft | 456 kts | 37° |
| 2026-04-15 12:31 | 40.01694 | 2.87050 | 32495 ft | 456 kts | 37° |
| 2026-04-15 12:31 | 40.04198 | 2.89585 | 32786 ft | 455 kts | 38° |
| 2026-04-15 12:32 | 40.06697 | 2.92120 | 33072 ft | 455 kts | 38° |
| 2026-04-15 12:32 | 40.09155 | 2.94617 | 33351 ft | 454 kts | 38° |
| 2026-04-15 12:32 | 40.11649 | 2.97154 | 33631 ft | 454 kts | 38° |
| 2026-04-15 12:32 | 40.14137 | 2.99686 | 33909 ft | 453 kts | 38° |
| 2026-04-15 12:33 | 40.16622 | 3.02212 | 34184 ft | 452 kts | 38° |
| 2026-04-15 12:33 | 40.19105 | 3.04736 | 34451 ft | 452 kts | 38° |
| 2026-04-15 12:33 | 40.21586 | 3.07260 | 34717 ft | 451 kts | 38° |
| 2026-04-15 12:33 | 40.24061 | 3.09786 | 34977 ft | 451 kts | 38° |
| 2026-04-15 12:34 | 40.26531 | 3.12310 | 35221 ft | 450 kts | 38° |
| 2026-04-15 12:34 | 40.29001 | 3.14832 | 35458 ft | 450 kts | 38° |
| 2026-04-15 12:34 | 40.31466 | 3.17349 | 35680 ft | 449 kts | 38° |
| 2026-04-15 12:34 | 40.33929 | 3.19868 | 35896 ft | 449 kts | 38° |
| 2026-04-15 12:35 | 40.36391 | 3.22390 | 35998 ft | 449 kts | 38° |
| 2026-04-15 12:35 | 40.41364 | 3.27489 | 36009 ft | 458 kts | 38° |
| 2026-04-15 12:36 | 40.46428 | 3.32690 | 36008 ft | 465 kts | 38° |
| 2026-04-15 12:36 | 40.51520 | 3.37949 | 36010 ft | 466 kts | 38° |
| 2026-04-15 12:37 | 40.56617 | 3.43216 | 36008 ft | 466 kts | 38° |
| 2026-04-15 12:37 | 40.61715 | 3.48495 | 36008 ft | 466 kts | 38° |
| 2026-04-15 12:38 | 40.66812 | 3.53773 | 36012 ft | 466 kts | 38° |
| 2026-04-15 12:38 | 40.71901 | 3.59063 | 36008 ft | 466 kts | 38° |
| 2026-04-15 12:39 | 40.76995 | 3.64356 | 36002 ft | 468 kts | 38° |
| 2026-04-15 12:39 | 40.82161 | 3.69732 | 36009 ft | 478 kts | 38° |
| 2026-04-15 12:40 | 40.87435 | 3.75241 | 36009 ft | 488 kts | 38° |
| 2026-04-15 12:40 | 40.92806 | 3.80868 | 36009 ft | 497 kts | 38° |
| 2026-04-15 12:41 | 40.98230 | 3.86556 | 36008 ft | 504 kts | 38° |
| 2026-04-15 12:41 | 41.03724 | 3.92333 | 36011 ft | 505 kts | 38° |
| 2026-04-15 12:42 | 41.09222 | 3.98127 | 36011 ft | 505 kts | 38° |
| 2026-04-15 12:42 | 41.14716 | 4.03918 | 36008 ft | 505 kts | 38° |
| 2026-04-15 12:43 | 41.20202 | 4.09738 | 36008 ft | 505 kts | 38° |
| 2026-04-15 12:43 | 41.25684 | 4.15567 | 36008 ft | 505 kts | 38° |
| 2026-04-15 12:44 | 41.31169 | 4.21396 | 36008 ft | 505 kts | 38° |
| 2026-04-15 12:44 | 41.36653 | 4.27231 | 36008 ft | 505 kts | 38° |
| 2026-04-15 12:45 | 41.42129 | 4.33083 | 36008 ft | 505 kts | 38° |
| 2026-04-15 12:45 | 41.47600 | 4.38948 | 36009 ft | 505 kts | 38° |
| 2026-04-15 12:46 | 41.53067 | 4.44822 | 36010 ft | 505 kts | 38° |
| 2026-04-15 12:46 | 41.58536 | 4.50701 | 36009 ft | 505 kts | 38° |
| 2026-04-15 12:47 | 41.64001 | 4.56590 | 36011 ft | 505 kts | 38° |
| 2026-04-15 12:47 | 41.69432 | 4.62447 | 36008 ft | 505 kts | 38° |
| 2026-04-15 12:48 | 41.74769 | 4.68543 | 36009 ft | 505 kts | 45° |
| 2026-04-15 12:48 | 41.79769 | 4.75151 | 36009 ft | 505 kts | 45° |
| 2026-04-15 12:49 | 41.84773 | 4.81758 | 36009 ft | 505 kts | 45° |
| 2026-04-15 12:49 | 41.89773 | 4.88369 | 36008 ft | 505 kts | 45° |
| 2026-04-15 12:50 | 41.94770 | 4.94996 | 36008 ft | 505 kts | 45° |
| 2026-04-15 12:50 | 41.99761 | 5.01641 | 36010 ft | 505 kts | 45° |
| 2026-04-15 12:51 | 42.04743 | 5.08289 | 36009 ft | 505 kts | 45° |
| 2026-04-15 12:51 | 42.09728 | 5.14951 | 36008 ft | 505 kts | 45° |
| 2026-04-15 12:52 | 42.14711 | 5.21620 | 36009 ft | 505 kts | 45° |
| 2026-04-15 12:52 | 42.19684 | 5.28299 | 36008 ft | 505 kts | 45° |
| 2026-04-15 12:53 | 42.23817 | 5.33862 | 36011 ft | 505 kts | 45° |
| 2026-04-15 12:53 | 42.28783 | 5.40567 | 36008 ft | 505 kts | 45° |
| 2026-04-15 12:54 | 42.33744 | 5.47281 | 36009 ft | 505 kts | 45° |
| 2026-04-15 12:54 | 42.38703 | 5.54004 | 36008 ft | 505 kts | 45° |
| 2026-04-15 12:55 | 42.43664 | 5.60732 | 36008 ft | 505 kts | 45° |
| 2026-04-15 12:55 | 42.48616 | 5.67473 | 36008 ft | 505 kts | 45° |
| 2026-04-15 12:56 | 42.53568 | 5.74224 | 36008 ft | 505 kts | 45° |
| 2026-04-15 12:56 | 42.58512 | 5.80986 | 36008 ft | 505 kts | 45° |
| 2026-04-15 12:57 | 42.63453 | 5.87763 | 36008 ft | 505 kts | 45° |
| 2026-04-15 12:57 | 42.68391 | 5.94554 | 36010 ft | 505 kts | 45° |
| 2026-04-15 12:58 | 42.73321 | 6.01353 | 36009 ft | 505 kts | 45° |
| 2026-04-15 12:58 | 42.78248 | 6.08163 | 36009 ft | 505 kts | 45° |
| 2026-04-15 12:59 | 42.85671 | 6.18339 | 36010 ft | 505 kts | 41° |
| 2026-04-15 12:59 | 42.91042 | 6.24498 | 36008 ft | 505 kts | 39° |
| 2026-04-15 13:00 | 42.96417 | 6.30664 | 36008 ft | 505 kts | 40° |
| 2026-04-15 13:00 | 43.01789 | 6.36844 | 36008 ft | 505 kts | 40° |
| 2026-04-15 13:01 | 43.07154 | 6.43034 | 36008 ft | 505 kts | 40° |
| 2026-04-15 13:01 | 43.12542 | 6.49190 | 36010 ft | 504 kts | 34° |
| 2026-04-15 13:02 | 43.18547 | 6.54121 | 36008 ft | 504 kts | 29° |
| 2026-04-15 13:02 | 43.24619 | 6.58925 | 36008 ft | 504 kts | 29° |
| 2026-04-15 13:03 | 43.30694 | 6.63732 | 36009 ft | 504 kts | 29° |
| 2026-04-15 13:03 | 43.36758 | 6.68558 | 36008 ft | 504 kts | 29° |
| 2026-04-15 13:04 | 43.42825 | 6.73409 | 36011 ft | 504 kts | 29° |
| 2026-04-15 13:04 | 43.48886 | 6.78261 | 36011 ft | 504 kts | 29° |
| 2026-04-15 13:05 | 43.54957 | 6.83136 | 36009 ft | 505 kts | 29° |
| 2026-04-15 13:05 | 43.61031 | 6.88025 | 36008 ft | 505 kts | 29° |
| 2026-04-15 13:06 | 43.67099 | 6.92918 | 36010 ft | 506 kts | 29° |
| 2026-04-15 13:06 | 43.73192 | 6.97840 | 36010 ft | 508 kts | 29° |
| 2026-04-15 13:07 | 43.79306 | 7.02797 | 36010 ft | 510 kts | 29° |
| 2026-04-15 13:07 | 43.85431 | 7.07766 | 36012 ft | 509 kts | 29° |
| 2026-04-15 13:08 | 43.91529 | 7.12725 | 36007 ft | 509 kts | 29° |
| 2026-04-15 13:08 | 43.97621 | 7.17705 | 36009 ft | 508 kts | 29° |
| 2026-04-15 13:09 | 44.03699 | 7.22682 | 36007 ft | 513 kts | 29° |
| 2026-04-15 13:09 | 44.09843 | 7.27715 | 36006 ft | 513 kts | 29° |
| 2026-04-15 13:10 | 44.16020 | 7.32794 | 36009 ft | 518 kts | 29° |
| 2026-04-15 13:10 | 44.22205 | 7.37890 | 36009 ft | 515 kts | 30° |
| 2026-04-15 13:11 | 44.28353 | 7.42960 | 36009 ft | 513 kts | 29° |
| 2026-04-15 13:11 | 44.34471 | 7.48010 | 36009 ft | 509 kts | 30° |
| 2026-04-15 13:12 | 44.40553 | 7.53056 | 36009 ft | 508 kts | 30° |
| 2026-04-15 13:12 | 44.46616 | 7.58119 | 36010 ft | 507 kts | 30° |
| 2026-04-15 13:13 | 44.52674 | 7.63188 | 36008 ft | 507 kts | 30° |
| 2026-04-15 13:13 | 44.58725 | 7.68239 | 36008 ft | 506 kts | 30° |
| 2026-04-15 13:14 | 44.64773 | 7.73296 | 36010 ft | 506 kts | 30° |
| 2026-04-15 13:14 | 44.71150 | 7.77307 | 36002 ft | 505 kts | 12° |
| 2026-04-15 13:15 | 44.77984 | 7.79514 | 36013 ft | 515 kts | 12° |
| 2026-04-15 13:15 | 44.85028 | 7.81761 | 36009 ft | 523 kts | 12° |
| 2026-04-15 13:16 | 44.92149 | 7.84041 | 36008 ft | 525 kts | 12° |
| 2026-04-15 13:16 | 44.99272 | 7.86353 | 36008 ft | 525 kts | 12° |
| 2026-04-15 13:17 | 45.06404 | 7.88667 | 36012 ft | 526 kts | 12° |
| 2026-04-15 13:17 | 45.13537 | 7.90978 | 36007 ft | 526 kts | 12° |
| 2026-04-15 13:18 | 45.20666 | 7.93290 | 36008 ft | 525 kts | 12° |
| 2026-04-15 13:18 | 45.27790 | 7.95607 | 36008 ft | 525 kts | 12° |
| 2026-04-15 13:19 | 45.34915 | 7.97945 | 36011 ft | 525 kts | 12° |
| 2026-04-15 13:19 | 45.42037 | 8.00288 | 36013 ft | 525 kts | 13° |
| 2026-04-15 13:20 | 45.49164 | 8.02634 | 36013 ft | 526 kts | 12° |
| 2026-04-15 13:20 | 45.56296 | 8.04984 | 36011 ft | 526 kts | 13° |
| 2026-04-15 13:21 | 45.63437 | 8.07351 | 36008 ft | 528 kts | 13° |
| 2026-04-15 13:21 | 45.70623 | 8.09733 | 36013 ft | 531 kts | 12° |
| 2026-04-15 13:22 | 45.77849 | 8.12129 | 36013 ft | 533 kts | 13° |
| 2026-04-15 13:22 | 45.85043 | 8.14519 | 36008 ft | 530 kts | 13° |
| 2026-04-15 13:23 | 45.92245 | 8.16923 | 36010 ft | 532 kts | 13° |
| 2026-04-15 13:23 | 45.99472 | 8.19356 | 36004 ft | 535 kts | 13° |
| 2026-04-15 13:24 | 46.06671 | 8.21782 | 36010 ft | 530 kts | 13° |
| 2026-04-15 13:24 | 46.13860 | 8.24201 | 36012 ft | 531 kts | 13° |
| 2026-04-15 13:25 | 46.21092 | 8.26638 | 36005 ft | 533 kts | 13° |
| 2026-04-15 13:25 | 46.28315 | 8.29095 | 36009 ft | 533 kts | 13° |
| 2026-04-15 13:26 | 46.35563 | 8.31554 | 36009 ft | 538 kts | 13° |
| 2026-04-15 13:26 | 46.42826 | 8.34009 | 36007 ft | 541 kts | 13° |
| 2026-04-15 13:27 | 46.50156 | 8.36506 | 36010 ft | 539 kts | 13° |
| 2026-04-15 13:27 | 46.57450 | 8.39012 | 36007 ft | 538 kts | 13° |
| 2026-04-15 13:28 | 46.64768 | 8.41526 | 36007 ft | 543 kts | 13° |
| 2026-04-15 13:28 | 46.72130 | 8.44061 | 36010 ft | 543 kts | 13° |
| 2026-04-15 13:29 | 46.79463 | 8.46595 | 36008 ft | 539 kts | 13° |
| 2026-04-15 13:29 | 46.86749 | 8.49116 | 36010 ft | 540 kts | 13° |
| 2026-04-15 13:30 | 46.94041 | 8.51634 | 36005 ft | 536 kts | 13° |
| 2026-04-15 13:30 | 47.01236 | 8.54145 | 36009 ft | 529 kts | 13° |
| 2026-04-15 13:31 | 47.08407 | 8.56656 | 36006 ft | 530 kts | 13° |
| 2026-04-15 13:31 | 47.15582 | 8.59165 | 36007 ft | 530 kts | 13° |
| 2026-04-15 13:32 | 47.22746 | 8.61679 | 36007 ft | 529 kts | 13° |
| 2026-04-15 13:32 | 47.29882 | 8.64203 | 36011 ft | 527 kts | 13° |
| 2026-04-15 13:33 | 47.37031 | 8.66733 | 36009 ft | 528 kts | 13° |
| 2026-04-15 13:33 | 47.44162 | 8.69241 | 36011 ft | 527 kts | 13° |
| 2026-04-15 13:34 | 47.51299 | 8.71766 | 36009 ft | 527 kts | 13° |
| 2026-04-15 13:34 | 47.58425 | 8.74324 | 36010 ft | 527 kts | 13° |
| 2026-04-15 13:35 | 47.65552 | 8.76881 | 36009 ft | 527 kts | 13° |
| 2026-04-15 13:35 | 47.72682 | 8.79431 | 36009 ft | 527 kts | 13° |
| 2026-04-15 13:36 | 47.79806 | 8.81990 | 36008 ft | 527 kts | 13° |
| 2026-04-15 13:36 | 47.86941 | 8.84555 | 36008 ft | 527 kts | 13° |
| 2026-04-15 13:37 | 47.94079 | 8.87118 | 36012 ft | 528 kts | 13° |
| 2026-04-15 13:37 | 48.00024 | 8.89267 | 36009 ft | 529 kts | 13° |
| 2026-04-15 13:38 | 48.07183 | 8.91861 | 36008 ft | 529 kts | 13° |
| 2026-04-15 13:38 | 48.14349 | 8.94468 | 36013 ft | 530 kts | 13° |
| 2026-04-15 13:39 | 48.21619 | 8.96069 | 36009 ft | 529 kts | 4° |
| 2026-04-15 13:39 | 48.28939 | 8.97176 | 36008 ft | 529 kts | 5° |
| 2026-04-15 13:40 | 48.36250 | 8.98302 | 36008 ft | 527 kts | 4° |
| 2026-04-15 13:40 | 48.43541 | 8.99412 | 36009 ft | 526 kts | 4° |
| 2026-04-15 13:41 | 48.50825 | 9.00512 | 36009 ft | 525 kts | 4° |
| 2026-04-15 13:41 | 48.58105 | 9.01643 | 36007 ft | 526 kts | 4° |
| 2026-04-15 13:42 | 48.65386 | 9.02808 | 36013 ft | 526 kts | 6° |
| 2026-04-15 13:42 | 48.72628 | 9.04449 | 36008 ft | 527 kts | 9° |
| 2026-04-15 13:43 | 48.79862 | 9.06361 | 35980 ft | 514 kts | 9° |
| 2026-04-15 13:43 | 48.83351 | 9.07266 | 35710 ft | 504 kts | 8° |
| 2026-04-15 13:43 | 48.86779 | 9.08122 | 35390 ft | 496 kts | 8° |
| 2026-04-15 13:44 | 48.90041 | 9.08870 | 35630 ft | 482 kts | 6° |
| 2026-04-15 13:44 | 48.93236 | 9.09523 | 36019 ft | 455 kts | 6° |
| 2026-04-15 13:44 | 48.96342 | 9.10115 | 35579 ft | 444 kts | 5° |
| 2026-04-15 13:44 | 48.99334 | 9.10607 | 35342 ft | 420 kts | 2° |
| 2026-04-15 13:45 | 49.02207 | 9.10877 | 34925 ft | 412 kts | 1° |
| 2026-04-15 13:45 | 49.05058 | 9.11066 | 34373 ft | 409 kts | 0° |
| 2026-04-15 13:45 | 49.07888 | 9.11283 | 33719 ft | 405 kts | 1° |
| 2026-04-15 13:47 | 49.27164 | 9.13188 | 28747 ft | 377 kts | 343° |
| 2026-04-15 13:47 | 49.29571 | 9.11681 | 28082 ft | 373 kts | 328° |
| 2026-04-15 13:47 | 49.31608 | 9.09248 | 27433 ft | 373 kts | 318° |
| 2026-04-15 13:48 | 49.33549 | 9.06598 | 26796 ft | 374 kts | 318° |
| 2026-04-15 13:48 | 49.35495 | 9.03935 | 26169 ft | 375 kts | 318° |
| 2026-04-15 13:48 | 49.37441 | 9.01268 | 25558 ft | 376 kts | 318° |
| 2026-04-15 13:48 | 49.39393 | 8.98592 | 24961 ft | 376 kts | 318° |
| 2026-04-15 13:49 | 49.41344 | 8.95917 | 24383 ft | 377 kts | 317° |
| 2026-04-15 13:49 | 49.43301 | 8.93227 | 23806 ft | 377 kts | 317° |
| 2026-04-15 13:49 | 49.45253 | 8.90544 | 23133 ft | 378 kts | 317° |
| 2026-04-15 13:49 | 49.47214 | 8.87846 | 22465 ft | 378 kts | 317° |
| 2026-04-15 13:50 | 49.49149 | 8.85177 | 21817 ft | 379 kts | 317° |
| 2026-04-15 13:50 | 49.51113 | 8.82469 | 21176 ft | 380 kts | 317° |
| 2026-04-15 13:50 | 49.53080 | 8.79751 | 20552 ft | 381 kts | 317° |
| 2026-04-15 13:50 | 49.55043 | 8.77034 | 19936 ft | 374 kts | 317° |
| 2026-04-15 13:51 | 49.56947 | 8.74395 | 19338 ft | 363 kts | 316° |
| 2026-04-15 13:51 | 49.58798 | 8.71830 | 18747 ft | 354 kts | 316° |
| 2026-04-15 13:51 | 49.60605 | 8.69321 | 18117 ft | 345 kts | 316° |
| 2026-04-15 13:51 | 49.62366 | 8.66868 | 17451 ft | 338 kts | 316° |
| 2026-04-15 13:52 | 49.64095 | 8.64460 | 16812 ft | 332 kts | 316° |
| 2026-04-15 13:52 | 49.65796 | 8.62094 | 16178 ft | 327 kts | 316° |
| 2026-04-15 13:52 | 49.67477 | 8.59754 | 15555 ft | 324 kts | 316° |
| 2026-04-15 13:52 | 49.69140 | 8.57432 | 14943 ft | 320 kts | 316° |
| 2026-04-15 13:53 | 49.70782 | 8.55135 | 14344 ft | 317 kts | 316° |
| 2026-04-15 13:53 | 49.72415 | 8.52852 | 13720 ft | 315 kts | 316° |
| 2026-04-15 13:53 | 49.74028 | 8.50595 | 13061 ft | 312 kts | 316° |
| 2026-04-15 13:53 | 49.75632 | 8.48346 | 12412 ft | 309 kts | 316° |
| 2026-04-15 13:54 | 49.77219 | 8.46123 | 11779 ft | 307 kts | 316° |
| 2026-04-15 13:54 | 49.78795 | 8.43916 | 11158 ft | 304 kts | 316° |
| 2026-04-15 13:54 | 49.80360 | 8.41723 | 10545 ft | 302 kts | 316° |
| 2026-04-15 13:54 | 49.81912 | 8.39541 | 9931 ft | 300 kts | 316° |
| 2026-04-15 13:55 | 49.83449 | 8.37375 | 9267 ft | 297 kts | 316° |
| 2026-04-15 13:55 | 49.84969 | 8.35223 | 8625 ft | 294 kts | 314° |
| 2026-04-15 13:55 | 49.86222 | 8.32763 | 7992 ft | 289 kts | 297° |
| 2026-04-15 13:55 | 49.86938 | 8.29893 | 7365 ft | 285 kts | 281° |
| 2026-04-15 13:56 | 49.87420 | 8.26925 | 6749 ft | 284 kts | 294° |
| 2026-04-15 13:56 | 49.88653 | 8.24593 | 6109 ft | 283 kts | 324° |
| 2026-04-15 13:56 | 49.90422 | 8.23319 | 5398 ft | 282 kts | 347° |
| 2026-04-15 13:56 | 49.92356 | 8.23131 | 4780 ft | 276 kts | 9° |
| 2026-04-15 13:57 | 49.94142 | 8.23986 | 4264 ft | 265 kts | 28° |
| 2026-04-15 13:57 | 49.95725 | 8.25290 | 4000 ft | 246 kts | 38° |
| 2026-04-15 13:57 | 49.96837 | 8.27115 | 3875 ft | 226 kts | 61° |
| 2026-04-15 13:57 | 49.97440 | 8.29294 | 3622 ft | 216 kts | 71° |
| 2026-04-15 13:58 | 49.97956 | 8.31443 | 3345 ft | 208 kts | 70° |
| 2026-04-15 13:58 | 49.98447 | 8.33478 | 3086 ft | 196 kts | 71° |
| 2026-04-15 13:58 | 49.98914 | 8.35409 | 2813 ft | 186 kts | 70° |
| 2026-04-15 13:58 | 49.99356 | 8.37240 | 2562 ft | 176 kts | 71° |
| 2026-04-15 13:59 | 49.99774 | 8.38967 | 2329 ft | 165 kts | 71° |
| 2026-04-15 13:59 | 50.00168 | 8.40603 | 2133 ft | 158 kts | 70° |
| 2026-04-15 13:59 | 50.00548 | 8.42178 | 1911 ft | 153 kts | 71° |
| 2026-04-15 13:59 | 50.00919 | 8.43718 | 1711 ft | 151 kts | 70° |
| 2026-04-15 14:00 | 50.01280 | 8.45218 | 1488 ft | 144 kts | 71° |
| 2026-04-15 14:00 | 50.01628 | 8.46671 | 1294 ft | 143 kts | 71° |
| 2026-04-15 14:00 | 50.01961 | 8.48116 | 1085 ft | 142 kts | 71° |
| 2026-04-15 14:00 | 50.02307 | 8.49549 | 902 ft | 141 kts | 69° |
| 2026-04-15 14:01 | 50.03010 | 8.52398 | 535 ft | 141 kts | 69° |
| 2026-04-15 14:01 | 50.03347 | 8.53823 | 355 ft | 140 kts | 69° |
| 2026-04-15 14:01 | 50.03647 | 8.55065 | 348 ft | 105 kts | 70° |
| 2026-04-15 14:02 | 50.03849 | 8.55918 | 352 ft | 66 kts | 70° |
| 2026-04-15 14:02 | 50.03978 | 8.56456 | 357 ft | 38 kts | 69° |
| 2026-04-15 14:02 | 50.04063 | 8.56677 | 359 ft | 21 kts | 37° |
| 2026-04-15 14:02 | 50.04166 | 8.56768 | 361 ft | 10 kts | 22° |
| 2026-04-15 14:03 | 50.04187 | 8.56777 | 360 ft | 0 kts | 11° |
| 2026-04-15 14:03 | 50.04189 | 8.56778 | 361 ft | 0 kts | 11° |
| 2026-04-15 14:04 | 50.04198 | 8.56780 | 362 ft | 2 kts | 11° |
| 2026-04-15 14:04 | 50.04222 | 8.56788 | 365 ft | 7 kts | 12° |
| 2026-04-15 14:04 | 50.04285 | 8.56809 | 360 ft | 11 kts | 12° |
| 2026-04-15 14:04 | 50.04351 | 8.56830 | 360 ft | 9 kts | 12° |
| 2026-04-15 14:05 | 50.04407 | 8.56845 | 363 ft | 8 kts | 8° |
| 2026-04-15 14:05 | 50.04458 | 8.56857 | 359 ft | 7 kts | 8° |
| 2026-04-15 14:05 | 50.04501 | 8.56870 | 359 ft | 6 kts | 12° |
| 2026-04-15 14:05 | 50.04524 | 8.56836 | 359 ft | 4 kts | 280° |
| 2026-04-15 14:06 | 50.04529 | 8.56795 | 365 ft | 4 kts | 286° |
| 2026-04-15 14:06 | 50.04543 | 8.56746 | 359 ft | 2 kts | 295° |
| 2026-04-15 14:06 | 50.04546 | 8.56735 | 363 ft | 0 kts | 295° |